Hovedside
METAR-TAF:

METAR-TAF

Lufthavner :

Örnsköldsvik lufthavn

Örnsköldsvik, Sverige

breddegrad: 63-24N, lengdegrad: 018-58E, høyde over havet: 103 m

Gjeldene værobservasjon

Denne rapporten ble laget for 43 minutter siden, klokken 16:50 UTC
Vind 4 kt fra Sør-sørøst
Temperatur 6°C
Luftfuktighet 100%
Trykk 1006 hPa
Sikt: 2200 m
duskregn

METAR: ESNO 181650Z 16004KT 2200 DZ VV005 06/06 Q1006

Tid: 19:33 (17:33 UTC)

Varsel

Denne rapporten ble laget for 3 timer og 3 minutter siden, klokken 14:30 UTC
Varsel gyldig fra 18. klokken 15 UTC til 18. klokken 18 UTC
Vind 4 kt fra Sørøst
Sikt 10 km eller mer
Overskyet i en høyde av 400 ft
Midlertidig
fra 18. klokken 15 UTC til 18. klokken 18 UTC
Sikt: 2500 m
Brutte skyer i en høyde av 1000 ft
lett regn, dis

TAF: ESNO 181430Z 1815/1818 13004KT 9999 OVC004 TEMPO 1815/1818 2500 -RA BR BKN010

Værobservasjoner og værvarsel for over 4000 flyplasser (METAR- og TAF-rapporter).

Tilgjengelige stasjoner er representert av de røde og gule prikkene på kartet.

Hold musepekeren over prikken for å se navnet på stasjonen.

Klikk så for å se værobservasjoner og -varsler.

For å forandre kartet kan du klikke på den grønne knappen med svart kryss for å zoome inn, på den grønne knappen med strek for å zoome ut, eller på de grønne pilene for å se tilstøtende kart.


METAR-TAF: